sensor_id;sensor_type;location;lat;lon;timestamp;pressure;altitude;pressure_sealevel;temperature;humidity
23229;BME280;11783;50.350;6.576;2023-02-08T00:02:10;98178.66;;;-2.59;88.66
23229;BME280;11783;50.350;6.576;2023-02-08T00:04:35;98179.91;;;-2.65;90.25
23229;BME280;11783;50.350;6.576;2023-02-08T00:07:00;98174.81;;;-2.66;90.04
23229;BME280;11783;50.350;6.576;2023-02-08T00:09:25;98176.59;;;-2.67;90.29
23229;BME280;11783;50.350;6.576;2023-02-08T00:11:51;98175.63;;;-2.66;89.97
23229;BME280;11783;50.350;6.576;2023-02-08T00:14:16;98171.16;;;-2.64;88.28
23229;BME280;11783;50.350;6.576;2023-02-08T00:16:41;98175.41;;;-2.63;87.62
23229;BME280;11783;50.350;6.576;2023-02-08T00:19:07;98173.88;;;-2.65;87.64
23229;BME280;11783;50.350;6.576;2023-02-08T00:21:32;98165.22;;;-2.66;87.37
23229;BME280;11783;50.350;6.576;2023-02-08T00:23:57;98171.97;;;-2.63;86.76
23229;BME280;11783;50.350;6.576;2023-02-08T00:26:23;98170.56;;;-2.67;87.65
23229;BME280;11783;50.350;6.576;2023-02-08T00:28:48;98159.53;;;-2.71;88.18
23229;BME280;11783;50.350;6.576;2023-02-08T00:31:13;98163.44;;;-2.77;89.07
23229;BME280;11783;50.350;6.576;2023-02-08T00:33:39;98153.84;;;-2.76;88.99
23229;BME280;11783;50.350;6.576;2023-02-08T00:36:05;98149.78;;;-2.80;88.85
23229;BME280;11783;50.350;6.576;2023-02-08T00:38:32;98153.91;;;-2.89;89.86
23229;BME280;11783;50.350;6.576;2023-02-08T00:40:57;98145.38;;;-2.91;90.32
23229;BME280;11783;50.350;6.576;2023-02-08T00:43:22;98151.44;;;-2.90;89.88
23229;BME280;11783;50.350;6.576;2023-02-08T00:45:53;98152.59;;;-2.94;90.54
23229;BME280;11783;50.350;6.576;2023-02-08T00:48:19;98161.34;;;-2.95;90.26
23229;BME280;11783;50.350;6.576;2023-02-08T00:50:44;98149.88;;;-2.93;89.81
23229;BME280;11783;50.350;6.576;2023-02-08T00:53:20;98159.47;;;-2.93;89.31
23229;BME280;11783;50.350;6.576;2023-02-08T00:55:52;98147.41;;;-2.94;89.32
23229;BME280;11783;50.350;6.576;2023-02-08T00:58:18;98147.41;;;-2.94;86.11
23229;BME280;11783;50.350;6.576;2023-02-08T01:00:43;98141.91;;;-3.02;88.50
23229;BME280;11783;50.350;6.576;2023-02-08T01:03:08;98140.97;;;-3.01;88.31
23229;BME280;11783;50.350;6.576;2023-02-08T01:05:36;98146.88;;;-2.99;86.60
23229;BME280;11783;50.350;6.576;2023-02-08T01:08:02;98146.13;;;-3.13;87.77
23229;BME280;11783;50.350;6.576;2023-02-08T01:10:27;98150.38;;;-3.12;88.30
23229;BME280;11783;50.350;6.576;2023-02-08T01:12:53;98153.94;;;-3.13;88.34
23229;BME280;11783;50.350;6.576;2023-02-08T01:15:18;98148.00;;;-3.15;88.60
23229;BME280;11783;50.350;6.576;2023-02-08T01:17:43;98152.16;;;-3.12;87.11
23229;BME280;11783;50.350;6.576;2023-02-08T01:20:09;98152.28;;;-3.14;87.90
23229;BME280;11783;50.350;6.576;2023-02-08T01:22:34;98151.56;;;-3.16;87.52
23229;BME280;11783;50.350;6.576;2023-02-08T01:25:00;98143.34;;;-3.22;87.65
23229;BME280;11783;50.350;6.576;2023-02-08T01:27:25;98138.03;;;-3.21;86.62
23229;BME280;11783;50.350;6.576;2023-02-08T01:29:51;98144.84;;;-3.31;88.26
23229;BME280;11783;50.350;6.576;2023-02-08T01:32:17;98137.03;;;-3.31;88.23
23229;BME280;11783;50.350;6.576;2023-02-08T01:34:42;98136.31;;;-3.33;88.14
23229;BME280;11783;50.350;6.576;2023-02-08T01:37:07;98136.97;;;-3.42;86.77
23229;BME280;11783;50.350;6.576;2023-02-08T01:39:33;98130.25;;;-3.57;87.90
23229;BME280;11783;50.350;6.576;2023-02-08T01:41:58;98128.81;;;-3.61;87.49
23229;BME280;11783;50.350;6.576;2023-02-08T01:47:26;98124.06;;;-3.80;89.38
23229;BME280;11783;50.350;6.576;2023-02-08T01:49:52;98123.47;;;-3.84;90.18
23229;BME280;11783;50.350;6.576;2023-02-08T01:52:19;98125.94;;;-3.82;90.59
23229;BME280;11783;50.350;6.576;2023-02-08T01:54:50;98124.78;;;-3.78;89.65
23229;BME280;11783;50.350;6.576;2023-02-08T01:57:19;98119.81;;;-3.81;90.44
23229;BME280;11783;50.350;6.576;2023-02-08T01:59:49;98118.03;;;-3.81;90.92
23229;BME280;11783;50.350;6.576;2023-02-08T02:02:18;98123.75;;;-3.76;90.38
23229;BME280;11783;50.350;6.576;2023-02-08T02:04:46;98114.28;;;-3.77;89.78
23229;BME280;11783;50.350;6.576;2023-02-08T02:07:12;98118.78;;;-3.79;89.94
23229;BME280;11783;50.350;6.576;2023-02-08T02:09:50;98117.72;;;-3.76;90.18
23229;BME280;11783;50.350;6.576;2023-02-08T02:12:17;98117.81;;;-3.78;89.66
23229;BME280;11783;50.350;6.576;2023-02-08T02:14:43;98118.53;;;-3.76;89.84
23229;BME280;11783;50.350;6.576;2023-02-08T02:17:10;98110.88;;;-3.77;89.17
23229;BME280;11783;50.350;6.576;2023-02-08T02:23:13;98114.59;;;-3.69;86.54
23229;BME280;11783;50.350;6.576;2023-02-08T02:40:38;98104.47;;;-3.97;89.14
23229;BME280;11783;50.350;6.576;2023-02-08T02:51:17;98114.69;;;-4.07;87.54
23229;BME280;11783;50.350;6.576;2023-02-08T02:56:38;98121.13;;;-4.38;88.10
23229;BME280;11783;50.350;6.576;2023-02-08T02:59:08;98117.16;;;-4.56;89.11
23229;BME280;11783;50.350;6.576;2023-02-08T03:01:36;98125.44;;;-4.76;90.25
23229;BME280;11783;50.350;6.576;2023-02-08T03:04:12;98128.44;;;-4.82;90.79
23229;BME280;11783;50.350;6.576;2023-02-08T03:21:12;98120.78;;;-4.59;89.53
23229;BME280;11783;50.350;6.576;2023-02-08T03:27:09;98124.81;;;-4.67;89.73
23229;BME280;11783;50.350;6.576;2023-02-08T03:29:49;98116.72;;;-4.75;89.82
23229;BME280;11783;50.350;6.576;2023-02-08T03:32:22;98117.88;;;-4.79;91.48
23229;BME280;11783;50.350;6.576;2023-02-08T03:35:17;98117.75;;;-4.78;91.05
23229;BME280;11783;50.350;6.576;2023-02-08T03:37:53;98112.47;;;-4.76;91.43
23229;BME280;11783;50.350;6.576;2023-02-08T03:40:26;98111.53;;;-4.75;92.04
23229;BME280;11783;50.350;6.576;2023-02-08T03:42:55;98115.47;;;-4.70;90.88
23229;BME280;11783;50.350;6.576;2023-02-08T03:45:32;98100.75;;;-4.69;91.03
23229;BME280;11783;50.350;6.576;2023-02-08T03:48:03;98107.31;;;-4.64;90.43
23229;BME280;11783;50.350;6.576;2023-02-08T03:50:33;98106.28;;;-4.61;88.83
23229;BME280;11783;50.350;6.576;2023-02-08T03:52:59;98114.16;;;-4.63;89.47
23229;BME280;11783;50.350;6.576;2023-02-08T03:55:29;98104.91;;;-4.67;90.66
23229;BME280;11783;50.350;6.576;2023-02-08T03:58:02;98105.72;;;-4.66;90.22
23229;BME280;11783;50.350;6.576;2023-02-08T04:00:30;98108.31;;;-4.66;90.55
23229;BME280;11783;50.350;6.576;2023-02-08T04:03:19;98114.06;;;-4.61;89.79
23229;BME280;11783;50.350;6.576;2023-02-08T04:05:46;98114.66;;;-4.58;87.92
23229;BME280;11783;50.350;6.576;2023-02-08T04:08:12;98117.59;;;-4.62;87.43
23229;BME280;11783;50.350;6.576;2023-02-08T04:10:38;98114.97;;;-4.75;87.96
23229;BME280;11783;50.350;6.576;2023-02-08T04:13:03;98114.53;;;-4.81;89.66
23229;BME280;11783;50.350;6.576;2023-02-08T04:15:29;98110.09;;;-4.79;88.92
23229;BME280;11783;50.350;6.576;2023-02-08T04:17:54;98113.63;;;-4.80;87.83
23229;BME280;11783;50.350;6.576;2023-02-08T04:20:20;98114.31;;;-4.91;89.23
23229;BME280;11783;50.350;6.576;2023-02-08T04:22:45;98115.03;;;-5.02;90.63
23229;BME280;11783;50.350;6.576;2023-02-08T04:25:10;98117.50;;;-5.00;91.40
23229;BME280;11783;50.350;6.576;2023-02-08T04:27:36;98114.09;;;-5.01;91.29
23229;BME280;11783;50.350;6.576;2023-02-08T04:30:02;98112.03;;;-4.96;90.27
23229;BME280;11783;50.350;6.576;2023-02-08T04:32:28;98112.84;;;-4.95;89.96
23229;BME280;11783;50.350;6.576;2023-02-08T04:34:53;98103.00;;;-4.90;89.65
23229;BME280;11783;50.350;6.576;2023-02-08T04:37:18;98103.94;;;-4.91;89.10
23229;BME280;11783;50.350;6.576;2023-02-08T04:39:44;98107.56;;;-4.94;89.83
23229;BME280;11783;50.350;6.576;2023-02-08T04:42:09;98101.34;;;-4.91;90.56
23229;BME280;11783;50.350;6.576;2023-02-08T04:44:34;98096.97;;;-4.91;90.31
23229;BME280;11783;50.350;6.576;2023-02-08T04:47:01;98103.63;;;-4.87;89.65
23229;BME280;11783;50.350;6.576;2023-02-08T04:49:26;98086.28;;;-4.86;88.55
23229;BME280;11783;50.350;6.576;2023-02-08T04:51:51;98092.31;;;-4.85;88.46
23229;BME280;11783;50.350;6.576;2023-02-08T04:54:17;98090.56;;;-4.85;88.17
23229;BME280;11783;50.350;6.576;2023-02-08T04:56:42;98096.97;;;-4.91;88.93
23229;BME280;11783;50.350;6.576;2023-02-08T04:59:08;98091.78;;;-4.91;88.64
23229;BME280;11783;50.350;6.576;2023-02-08T05:01:33;98095.13;;;-4.89;87.97
23229;BME280;11783;50.350;6.576;2023-02-08T05:03:58;98091.78;;;-4.91;87.75
23229;BME280;11783;50.350;6.576;2023-02-08T05:06:24;98101.41;;;-5.05;88.41
23229;BME280;11783;50.350;6.576;2023-02-08T05:08:49;98101.28;;;-5.16;89.32
23229;BME280;11783;50.350;6.576;2023-02-08T05:11:22;98097.97;;;-5.19;89.99
23229;BME280;11783;50.350;6.576;2023-02-08T05:13:48;98095.38;;;-5.19;89.20
23229;BME280;11783;50.350;6.576;2023-02-08T05:16:14;98092.88;;;-5.20;89.39
23229;BME280;11783;50.350;6.576;2023-02-08T05:18:40;98097.13;;;-5.19;89.44
23229;BME280;11783;50.350;6.576;2023-02-08T05:21:05;98101.56;;;-5.21;88.76
23229;BME280;11783;50.350;6.576;2023-02-08T05:23:30;98088.88;;;-5.38;90.03
23229;BME280;11783;50.350;6.576;2023-02-08T05:25:56;98092.34;;;-5.52;91.15
23229;BME280;11783;50.350;6.576;2023-02-08T05:28:22;98094.41;;;-5.57;91.03
23229;BME280;11783;50.350;6.576;2023-02-08T05:30:47;98091.06;;;-5.59;90.46
23229;BME280;11783;50.350;6.576;2023-02-08T05:33:13;98089.88;;;-5.68;92.22
23229;BME280;11783;50.350;6.576;2023-02-08T05:35:38;98093.22;;;-5.66;92.68
23229;BME280;11783;50.350;6.576;2023-02-08T05:38:04;98095.59;;;-5.63;92.79
23229;BME280;11783;50.350;6.576;2023-02-08T05:40:30;98086.81;;;-5.60;92.67
23229;BME280;11783;50.350;6.576;2023-02-08T05:42:56;98087.38;;;-5.55;92.49
23229;BME280;11783;50.350;6.576;2023-02-08T05:45:21;98086.25;;;-5.51;92.08
23229;BME280;11783;50.350;6.576;2023-02-08T05:47:47;98087.69;;;-5.47;91.60
23229;BME280;11783;50.350;6.576;2023-02-08T05:50:12;98092.88;;;-5.47;90.66
23229;BME280;11783;50.350;6.576;2023-02-08T05:52:38;98091.84;;;-5.44;91.00
23229;BME280;11783;50.350;6.576;2023-02-08T05:55:04;98093.72;;;-5.46;90.83
23229;BME280;11783;50.350;6.576;2023-02-08T05:57:29;98096.09;;;-5.43;90.39
23229;BME280;11783;50.350;6.576;2023-02-08T05:59:55;98101.28;;;-5.43;90.42
23229;BME280;11783;50.350;6.576;2023-02-08T06:02:20;98095.84;;;-5.39;89.67
23229;BME280;11783;50.350;6.576;2023-02-08T06:04:45;98100.16;;;-5.39;89.41
23229;BME280;11783;50.350;6.576;2023-02-08T06:07:10;98108.84;;;-5.40;89.61
23229;BME280;11783;50.350;6.576;2023-02-08T06:09:36;98106.47;;;-5.43;89.44
23229;BME280;11783;50.350;6.576;2023-02-08T06:12:02;98104.50;;;-5.40;89.22
23229;BME280;11783;50.350;6.576;2023-02-08T06:14:27;98107.59;;;-5.47;88.92
23229;BME280;11783;50.350;6.576;2023-02-08T06:16:52;98106.53;;;-5.58;89.85
23229;BME280;11783;50.350;6.576;2023-02-08T06:19:17;98111.97;;;-5.62;90.45
23229;BME280;11783;50.350;6.576;2023-02-08T06:21:43;98104.00;;;-5.59;89.98
23229;BME280;11783;50.350;6.576;2023-02-08T06:24:08;98111.25;;;-5.64;90.05
23229;BME280;11783;50.350;6.576;2023-02-08T06:26:35;98103.66;;;-5.67;90.21
23229;BME280;11783;50.350;6.576;2023-02-08T06:29:01;98109.34;;;-5.75;91.17
23229;BME280;11783;50.350;6.576;2023-02-08T06:31:26;98104.91;;;-5.73;91.14
23229;BME280;11783;50.350;6.576;2023-02-08T06:33:51;98108.31;;;-5.72;90.61
23229;BME280;11783;50.350;6.576;2023-02-08T06:36:17;98109.25;;;-5.73;90.46
23229;BME280;11783;50.350;6.576;2023-02-08T06:38:42;98107.28;;;-5.70;90.34
23229;BME280;11783;50.350;6.576;2023-02-08T06:41:07;98107.09;;;-5.67;89.88
23229;BME280;11783;50.350;6.576;2023-02-08T06:43:33;98103.78;;;-5.69;90.07
23229;BME280;11783;50.350;6.576;2023-02-08T06:45:58;98102.00;;;-5.68;90.86
23229;BME280;11783;50.350;6.576;2023-02-08T06:48:24;98111.53;;;-5.69;90.72
23229;BME280;11783;50.350;6.576;2023-02-08T06:50:51;98104.50;;;-5.67;90.58
23229;BME280;11783;50.350;6.576;2023-02-08T06:53:17;98099.53;;;-5.70;89.85
23229;BME280;11783;50.350;6.576;2023-02-08T06:55:47;98104.81;;;-5.71;89.86
23229;BME280;11783;50.350;6.576;2023-02-08T06:58:13;98113.59;;;-5.74;89.73
23229;BME280;11783;50.350;6.576;2023-02-08T07:00:38;98111.56;;;-5.83;89.87
23229;BME280;11783;50.350;6.576;2023-02-08T07:03:03;98112.34;;;-5.95;90.15
23229;BME280;11783;50.350;6.576;2023-02-08T07:05:29;98110.03;;;-6.14;92.04
23229;BME280;11783;50.350;6.576;2023-02-08T07:07:54;98109.22;;;-6.15;92.06
23229;BME280;11783;50.350;6.576;2023-02-08T07:10:19;98103.97;;;-6.13;92.19
23229;BME280;11783;50.350;6.576;2023-02-08T07:12:45;98102.94;;;-6.11;91.51
23229;BME280;11783;50.350;6.576;2023-02-08T07:15:10;98105.34;;;-6.07;91.49
23229;BME280;11783;50.350;6.576;2023-02-08T07:17:37;98101.28;;;-6.12;91.61
23229;BME280;11783;50.350;6.576;2023-02-08T07:20:03;98093.78;;;-6.16;91.88
23229;BME280;11783;50.350;6.576;2023-02-08T07:22:28;98105.34;;;-6.22;92.42
23229;BME280;11783;50.350;6.576;2023-02-08T07:24:53;98107.75;;;-6.19;92.78
23229;BME280;11783;50.350;6.576;2023-02-08T07:27:19;98107.66;;;-6.17;92.25
23229;BME280;11783;50.350;6.576;2023-02-08T07:29:44;98101.09;;;-6.23;92.98
23229;BME280;11783;50.350;6.576;2023-02-08T07:32:10;98101.28;;;-6.26;93.94
23229;BME280;11783;50.350;6.576;2023-02-08T07:34:36;98106.19;;;-6.21;92.77
23229;BME280;11783;50.350;6.576;2023-02-08T07:37:02;98099.34;;;-6.22;92.97
23229;BME280;11783;50.350;6.576;2023-02-08T07:39:28;98094.50;;;-6.14;92.01
23229;BME280;11783;50.350;6.576;2023-02-08T07:41:55;98099.97;;;-6.19;92.96
23229;BME280;11783;50.350;6.576;2023-02-08T07:44:20;98092.94;;;-6.17;93.09
23229;BME280;11783;50.350;6.576;2023-02-08T07:46:46;98085.75;;;-6.12;92.30
23229;BME280;11783;50.350;6.576;2023-02-08T07:49:11;98083.91;;;-6.09;92.88
23229;BME280;11783;50.350;6.576;2023-02-08T07:51:37;98088.06;;;-6.07;92.24
23229;BME280;11783;50.350;6.576;2023-02-08T07:54:02;98083.34;;;-6.15;93.15
23229;BME280;11783;50.350;6.576;2023-02-08T07:56:27;98081.88;;;-6.19;93.85
23229;BME280;11783;50.350;6.576;2023-02-08T07:58:53;98086.69;;;-6.27;95.38
23229;BME280;11783;50.350;6.576;2023-02-08T08:01:18;98078.44;;;-6.33;96.33
23229;BME280;11783;50.350;6.576;2023-02-08T08:03:43;98081.03;;;-6.33;97.15
23229;BME280;11783;50.350;6.576;2023-02-08T08:06:09;98077.91;;;-6.24;97.00
23229;BME280;11783;50.350;6.576;2023-02-08T08:08:34;98076.97;;;-6.23;97.28
23229;BME280;11783;50.350;6.576;2023-02-08T08:11:00;98068.19;;;-6.21;98.06
23229;BME280;11783;50.350;6.576;2023-02-08T08:13:25;98071.41;;;-6.17;97.72
23229;BME280;11783;50.350;6.576;2023-02-08T08:15:50;98073.75;;;-6.13;98.08
23229;BME280;11783;50.350;6.576;2023-02-08T08:18:16;98071.88;;;-6.11;98.37
23229;BME280;11783;50.350;6.576;2023-02-08T08:20:41;98071.59;;;-6.06;98.56
23229;BME280;11783;50.350;6.576;2023-02-08T08:23:07;98064.19;;;-5.98;98.31
23229;BME280;11783;50.350;6.576;2023-02-08T08:25:32;98070.91;;;-5.95;99.31
23229;BME280;11783;50.350;6.576;2023-02-08T08:27:58;98066.31;;;-5.90;98.46
23229;BME280;11783;50.350;6.576;2023-02-08T08:30:23;98061.53;;;-5.84;98.63
23229;BME280;11783;50.350;6.576;2023-02-08T08:32:48;98054.97;;;-5.75;98.99
23229;BME280;11783;50.350;6.576;2023-02-08T08:35:14;98056.75;;;-5.63;100.00
23229;BME280;11783;50.350;6.576;2023-02-08T08:37:39;98062.09;;;-5.52;100.00
23229;BME280;11783;50.350;6.576;2023-02-08T08:40:05;98057.13;;;-5.42;100.00
23229;BME280;11783;50.350;6.576;2023-02-08T08:42:32;98054.06;;;-5.34;100.00
23229;BME280;11783;50.350;6.576;2023-02-08T08:44:58;98058.13;;;-5.30;100.00
23229;BME280;11783;50.350;6.576;2023-02-08T08:47:26;98056.97;;;-5.26;100.00
23229;BME280;11783;50.350;6.576;2023-02-08T08:49:51;98059.72;;;-5.15;100.00
23229;BME280;11783;50.350;6.576;2023-02-08T08:52:17;98055.16;;;-5.11;100.00
23229;BME280;11783;50.350;6.576;2023-02-08T08:54:45;98061.31;;;-5.00;100.00
23229;BME280;11783;50.350;6.576;2023-02-08T08:57:10;98056.44;;;-4.92;100.00
23229;BME280;11783;50.350;6.576;2023-02-08T08:59:36;98054.06;;;-4.82;100.00
23229;BME280;11783;50.350;6.576;2023-02-08T09:02:01;98056.44;;;-4.66;100.00
23229;BME280;11783;50.350;6.576;2023-02-08T09:04:29;98059.03;;;-4.53;100.00
23229;BME280;11783;50.350;6.576;2023-02-08T09:06:55;98047.09;;;-4.43;100.00
23229;BME280;11783;50.350;6.576;2023-02-08T09:09:20;98038.06;;;-4.38;100.00
23229;BME280;11783;50.350;6.576;2023-02-08T09:11:49;98041.69;;;-4.28;100.00
23229;BME280;11783;50.350;6.576;2023-02-08T09:14:14;98040.53;;;-4.23;100.00
23229;BME280;11783;50.350;6.576;2023-02-08T09:16:41;98048.41;;;-4.12;100.00
23229;BME280;11783;50.350;6.576;2023-02-08T09:19:07;98047.81;;;-3.92;100.00
23229;BME280;11783;50.350;6.576;2023-02-08T09:21:34;98049.66;;;-3.69;100.00
23229;BME280;11783;50.350;6.576;2023-02-08T09:24:00;98042.06;;;-3.48;100.00
23229;BME280;11783;50.350;6.576;2023-02-08T09:26:26;98043.09;;;-3.26;99.48
23229;BME280;11783;50.350;6.576;2023-02-08T09:28:51;98037.13;;;-3.05;97.80
23229;BME280;11783;50.350;6.576;2023-02-08T09:31:23;98043.22;;;-2.82;98.41
23229;BME280;11783;50.350;6.576;2023-02-08T09:33:50;98042.53;;;-2.61;97.95
23229;BME280;11783;50.350;6.576;2023-02-08T09:36:16;98034.41;;;-2.46;97.63
23229;BME280;11783;50.350;6.576;2023-02-08T09:38:42;98032.03;;;-2.26;97.41
23229;BME280;11783;50.350;6.576;2023-02-08T09:42:04;98037.72;;;-2.10;95.62
23229;BME280;11783;50.350;6.576;2023-02-08T09:44:14;98033.22;;;-1.97;95.47
23229;BME280;11783;50.350;6.576;2023-02-08T09:46:54;98025.28;;;-1.84;95.87
23229;BME280;11783;50.350;6.576;2023-02-08T09:49:29;98031.03;;;-1.69;97.33
23229;BME280;11783;50.350;6.576;2023-02-08T09:52:00;98030.75;;;-1.55;97.59
23229;BME280;11783;50.350;6.576;2023-02-08T09:54:39;98029.78;;;-1.43;95.47
23229;BME280;11783;50.350;6.576;2023-02-08T09:57:12;98033.28;;;-1.33;89.97
23229;BME280;11783;50.350;6.576;2023-02-08T09:59:55;98028.59;;;-1.18;90.82
23229;BME280;11783;50.350;6.576;2023-02-08T10:02:26;98018.38;;;-1.10;88.45
23229;BME280;11783;50.350;6.576;2023-02-08T10:07:24;98018.81;;;-0.84;84.75
23229;BME280;11783;50.350;6.576;2023-02-08T10:09:49;98022.34;;;-0.74;78.72
23229;BME280;11783;50.350;6.576;2023-02-08T10:15:25;98021.91;;;-0.48;72.35
23229;BME280;11783;50.350;6.576;2023-02-08T10:23:37;98029.50;;;-0.15;69.33
23229;BME280;11783;50.350;6.576;2023-02-08T10:28:46;98022.81;;;0.12;64.61
23229;BME280;11783;50.350;6.576;2023-02-08T10:34:06;98023.44;;;0.35;63.88
23229;BME280;11783;50.350;6.576;2023-02-08T10:36:37;98018.91;;;0.46;62.78
23229;BME280;11783;50.350;6.576;2023-02-08T10:39:15;98018.50;;;0.51;63.88
23229;BME280;11783;50.350;6.576;2023-02-08T10:41:42;98013.97;;;0.63;59.40
23229;BME280;11783;50.350;6.576;2023-02-08T10:44:20;98015.75;;;0.72;54.36
23229;BME280;11783;50.350;6.576;2023-02-08T10:47:02;98007.38;;;0.78;54.99
23229;BME280;11783;50.350;6.576;2023-02-08T10:49:56;98004.06;;;0.76;56.60
23229;BME280;11783;50.350;6.576;2023-02-08T10:52:24;98010.13;;;0.86;57.63
23229;BME280;11783;50.350;6.576;2023-02-08T10:54:49;97999.91;;;0.93;53.94
23229;BME280;11783;50.350;6.576;2023-02-08T10:57:22;97992.19;;;1.01;55.23
23229;BME280;11783;50.350;6.576;2023-02-08T11:00:19;97989.16;;;1.05;53.45
23229;BME280;11783;50.350;6.576;2023-02-08T11:02:45;97993.41;;;1.16;51.66
23229;BME280;11783;50.350;6.576;2023-02-08T11:05:31;97995.88;;;1.27;53.35
23229;BME280;11783;50.350;6.576;2023-02-08T11:10:38;97992.66;;;1.43;52.50
23229;BME280;11783;50.350;6.576;2023-02-08T11:13:05;97994.72;;;1.49;49.44
23229;BME280;11783;50.350;6.576;2023-02-08T11:15:49;97991.66;;;1.54;48.53
23229;BME280;11783;50.350;6.576;2023-02-08T11:18:25;97997.16;;;1.60;47.64
23229;BME280;11783;50.350;6.576;2023-02-08T11:20:55;97980.47;;;1.61;48.13
23229;BME280;11783;50.350;6.576;2023-02-08T11:23:24;97987.75;;;1.67;50.70
23229;BME280;11783;50.350;6.576;2023-02-08T11:25:51;97985.00;;;1.69;46.59
23229;BME280;11783;50.350;6.576;2023-02-08T11:28:28;97974.06;;;1.73;50.51
23229;BME280;11783;50.350;6.576;2023-02-08T11:30:59;97980.75;;;1.86;47.72
23229;BME280;11783;50.350;6.576;2023-02-08T11:33:27;97970.69;;;1.91;50.63
23229;BME280;11783;50.350;6.576;2023-02-08T11:36:01;97969.78;;;2.00;44.71
23229;BME280;11783;50.350;6.576;2023-02-08T11:38:29;97968.94;;;2.09;49.31
23229;BME280;11783;50.350;6.576;2023-02-08T11:40:57;97973.88;;;2.12;44.92
23229;BME280;11783;50.350;6.576;2023-02-08T11:43:26;97967.69;;;2.31;48.85
23229;BME280;11783;50.350;6.576;2023-02-08T11:45:54;97967.91;;;2.37;48.63
23229;BME280;11783;50.350;6.576;2023-02-08T11:50:52;97967.91;;;2.37;47.89
23229;BME280;11783;50.350;6.576;2023-02-08T11:53:26;97965.38;;;2.46;45.63
23229;BME280;11783;50.350;6.576;2023-02-08T11:58:37;97965.44;;;2.71;45.34
23229;BME280;11783;50.350;6.576;2023-02-08T12:01:18;97966.72;;;2.85;45.88
23229;BME280;11783;50.350;6.576;2023-02-08T12:03:45;97957.09;;;2.94;45.02
23229;BME280;11783;50.350;6.576;2023-02-08T12:06:31;97966.22;;;3.08;43.99
23229;BME280;11783;50.350;6.576;2023-02-08T12:09:27;97958.69;;;3.13;45.75
23229;BME280;11783;50.350;6.576;2023-02-08T12:12:17;97953.81;;;3.18;44.78
23229;BME280;11783;50.350;6.576;2023-02-08T12:14:56;97949.00;;;3.13;47.90
23229;BME280;11783;50.350;6.576;2023-02-08T12:31:09;97924.72;;;3.37;45.04
23229;BME280;11783;50.350;6.576;2023-02-08T12:33:51;97926.72;;;3.43;48.29
23229;BME280;11783;50.350;6.576;2023-02-08T12:39:32;97912.75;;;3.43;43.68
23229;BME280;11783;50.350;6.576;2023-02-08T12:42:31;97906.53;;;3.52;45.06
23229;BME280;11783;50.350;6.576;2023-02-08T12:48:31;97902.47;;;3.65;45.55
23229;BME280;11783;50.350;6.576;2023-02-08T12:55:37;97887.81;;;3.97;43.75
23229;BME280;11783;50.350;6.576;2023-02-08T12:58:25;97881.41;;;4.00;45.73
23229;BME280;11783;50.350;6.576;2023-02-08T13:00:53;97877.28;;;4.05;44.58
23229;BME280;11783;50.350;6.576;2023-02-08T13:05:54;97872.72;;;4.15;45.83
23229;BME280;11783;50.350;6.576;2023-02-08T13:10:55;97870.75;;;4.25;43.60
23229;BME280;11783;50.350;6.576;2023-02-08T13:13:27;97865.16;;;4.45;45.28
23229;BME280;11783;50.350;6.576;2023-02-08T13:18:30;97856.38;;;5.09;46.33
23229;BME280;11783;50.350;6.576;2023-02-08T13:21:03;97855.66;;;5.32;46.91
23229;BME280;11783;50.350;6.576;2023-02-08T13:23:39;97860.13;;;5.70;47.61
23229;BME280;11783;50.350;6.576;2023-02-08T13:26:10;97855.34;;;6.05;45.07
23229;BME280;11783;50.350;6.576;2023-02-08T13:28:38;97848.56;;;6.33;43.82
23229;BME280;11783;50.350;6.576;2023-02-08T13:31:12;97846.13;;;6.70;40.42
23229;BME280;11783;50.350;6.576;2023-02-08T13:33:51;97847.44;;;7.03;39.91
23229;BME280;11783;50.350;6.576;2023-02-08T13:38:47;97849.00;;;7.56;41.75
23229;BME280;11783;50.350;6.576;2023-02-08T13:41:18;97849.63;;;7.73;36.16
23229;BME280;11783;50.350;6.576;2023-02-08T13:43:57;97848.16;;;7.85;40.66
23229;BME280;11783;50.350;6.576;2023-02-08T13:46:25;97851.06;;;8.12;40.17
23229;BME280;11783;50.350;6.576;2023-02-08T13:48:54;97852.16;;;8.17;41.24
23229;BME280;11783;50.350;6.576;2023-02-08T13:56:44;97849.75;;;8.59;39.02
23229;BME280;11783;50.350;6.576;2023-02-08T13:59:38;97846.25;;;8.79;38.87
23229;BME280;11783;50.350;6.576;2023-02-08T14:04:45;97844.56;;;9.34;39.19
23229;BME280;11783;50.350;6.576;2023-02-08T14:10:26;97833.56;;;9.79;37.94
23229;BME280;11783;50.350;6.576;2023-02-08T14:13:05;97836.47;;;10.03;36.64
23229;BME280;11783;50.350;6.576;2023-02-08T14:15:39;97837.34;;;10.17;35.86
23229;BME280;11783;50.350;6.576;2023-02-08T14:20:57;97839.19;;;10.17;36.12
23229;BME280;11783;50.350;6.576;2023-02-08T14:23:26;97830.47;;;10.23;34.29
23229;BME280;11783;50.350;6.576;2023-02-08T14:25:57;97837.00;;;10.34;35.50
23229;BME280;11783;50.350;6.576;2023-02-08T14:28:36;97827.81;;;10.56;33.64
23229;BME280;11783;50.350;6.576;2023-02-08T14:31:04;97822.53;;;10.63;33.68
23229;BME280;11783;50.350;6.576;2023-02-08T14:33:36;97826.59;;;10.58;34.90
23229;BME280;11783;50.350;6.576;2023-02-08T14:36:05;97830.72;;;10.61;34.36
23229;BME280;11783;50.350;6.576;2023-02-08T14:39:03;97805.53;;;10.77;32.25
23229;BME280;11783;50.350;6.576;2023-02-08T14:41:52;97813.91;;;10.93;32.62
23229;BME280;11783;50.350;6.576;2023-02-08T14:49:48;97806.69;;;11.27;31.42
23229;BME280;11783;50.350;6.576;2023-02-08T14:52:21;97812.69;;;11.16;32.78
23229;BME280;11783;50.350;6.576;2023-02-08T14:55:04;97811.91;;;10.82;32.67
23229;BME280;11783;50.350;6.576;2023-02-08T14:57:34;97813.72;;;10.49;33.66
23229;BME280;11783;50.350;6.576;2023-02-08T15:00:14;97815.88;;;10.06;34.08
23229;BME280;11783;50.350;6.576;2023-02-08T15:02:44;97810.41;;;9.59;33.21
23229;BME280;11783;50.350;6.576;2023-02-08T15:05:20;97811.72;;;9.01;34.82
23229;BME280;11783;50.350;6.576;2023-02-08T15:07:50;97798.19;;;8.61;34.98
23229;BME280;11783;50.350;6.576;2023-02-08T15:10:18;97800.28;;;8.44;31.95
23229;BME280;11783;50.350;6.576;2023-02-08T15:12:53;97797.41;;;8.39;33.49
23229;BME280;11783;50.350;6.576;2023-02-08T15:17:58;97802.47;;;8.62;35.43
23229;BME280;11783;50.350;6.576;2023-02-08T15:20:28;97806.72;;;8.85;34.24
23229;BME280;11783;50.350;6.576;2023-02-08T15:23:02;97798.25;;;9.02;34.53
23229;BME280;11783;50.350;6.576;2023-02-08T15:25:33;97797.53;;;9.15;35.23